createdAt,value
2022-08-20T00:02:10.122Z,3.75
2022-08-20T00:05:13.167Z,4.55
2022-08-20T00:08:15.860Z,3.90
2022-08-20T00:11:23.612Z,4.15
2022-08-20T00:14:27.015Z,3.97
2022-08-20T00:17:39.249Z,4.40
2022-08-20T00:20:44.791Z,4.70
2022-08-20T00:23:50.307Z,4.17
2022-08-20T00:26:52.658Z,4.75
2022-08-20T00:29:54.948Z,4.47
2022-08-20T00:33:00.032Z,3.90
2022-08-20T00:36:06.670Z,4.57
2022-08-20T00:39:09.938Z,4.37
2022-08-20T00:42:12.330Z,4.53
2022-08-20T00:45:15.772Z,4.70
2022-08-20T00:48:17.782Z,5.32
2022-08-20T00:51:51.877Z,4.53
2022-08-20T00:54:57.988Z,4.17
2022-08-20T00:58:05.336Z,5.20
2022-08-20T01:01:08.553Z,4.50
2022-08-20T01:04:11.179Z,4.20
2022-08-20T01:07:13.627Z,4.57
2022-08-20T01:10:19.591Z,4.87
2022-08-20T01:13:24.089Z,4.30
2022-08-20T01:16:30.180Z,5.15
2022-08-20T01:19:42.152Z,4.70
2022-08-20T01:23:30.202Z,4.82
2022-08-20T01:26:46.135Z,4.30
2022-08-20T01:29:48.680Z,4.72
2022-08-20T01:32:51.063Z,5.55
2022-08-20T01:35:53.910Z,4.70
2022-08-20T01:38:56.485Z,4.38
2022-08-20T01:42:24.372Z,4.13
2022-08-20T01:45:30.414Z,5.10
2022-08-20T01:48:32.978Z,4.57
2022-08-20T01:51:35.163Z,5.13
2022-08-20T01:54:37.254Z,5.45
2022-08-20T01:57:39.819Z,5.40
2022-08-20T02:00:42.511Z,5.70
2022-08-20T02:03:44.915Z,5.40
2022-08-20T02:06:56.664Z,5.50
2022-08-20T02:09:59.908Z,5.25
2022-08-20T02:13:01.968Z,5.40
2022-08-20T02:16:05.945Z,6.00
2022-08-20T02:19:12.585Z,5.32
2022-08-20T02:22:27.112Z,5.22
2022-08-20T02:25:32.652Z,5.68
2022-08-20T02:28:34.937Z,4.60
2022-08-20T02:32:23.601Z,4.20
2022-08-20T02:35:03.816Z,4.38
2022-08-20T02:38:06.665Z,3.90
2022-08-20T02:41:10.748Z,4.10
2022-08-20T02:44:13.263Z,4.47
2022-08-20T02:47:15.199Z,4.03
2022-08-20T02:50:19.944Z,4.93
2022-08-20T02:53:23.213Z,5.45
2022-08-20T02:56:25.231Z,5.57
2022-08-20T02:59:27.164Z,6.00
2022-08-20T03:02:29.836Z,5.65
2022-08-20T03:05:31.931Z,6.32
2022-08-20T03:08:35.609Z,6.53
2022-08-20T03:11:39.457Z,6.32
2022-08-20T03:14:41.529Z,6.30
2022-08-20T03:17:43.458Z,6.50
2022-08-20T03:20:46.860Z,7.10
2022-08-20T03:23:54.188Z,6.35
2022-08-20T03:26:56.334Z,6.10
2022-08-20T03:29:58.359Z,6.60
2022-08-20T03:33:01.437Z,5.97
2022-08-20T03:36:04.990Z,5.55
2022-08-20T03:39:13.209Z,6.13
2022-08-20T03:42:15.182Z,6.38
2022-08-20T03:45:20.377Z,5.93
2022-08-20T03:48:23.013Z,6.05
2022-08-20T03:51:25.470Z,5.97
2022-08-20T03:54:31.914Z,5.40
2022-08-20T03:57:35.709Z,5.75
2022-08-20T04:00:43.107Z,5.77
2022-08-20T04:03:45.396Z,6.03
2022-08-20T04:06:47.720Z,5.93
2022-08-20T04:09:49.643Z,5.38
2022-08-20T04:12:53.161Z,5.50
2022-08-20T04:15:55.662Z,5.70
2022-08-20T04:19:02.519Z,5.75
2022-08-20T04:22:05.612Z,6.18
2022-08-20T04:25:12.126Z,5.72
2022-08-20T04:28:25.369Z,5.80
2022-08-20T04:31:33.749Z,5.53
2022-08-20T04:34:36.418Z,5.90
2022-08-20T04:37:41.696Z,6.32
2022-08-20T04:40:57.906Z,5.80
2022-08-20T04:44:00.673Z,5.03
2022-08-20T04:47:02.602Z,5.67
2022-08-20T04:50:07.642Z,5.57
2022-08-20T04:53:16.839Z,6.03
2022-08-20T04:56:19.818Z,5.28
2022-08-20T04:59:25.707Z,5.10
2022-08-20T05:02:27.687Z,5.50
2022-08-20T05:05:30.883Z,6.03
2022-08-20T05:08:33.949Z,5.95
2022-08-20T05:11:37.002Z,6.28
2022-08-20T05:14:39.117Z,5.75
2022-08-20T05:17:42.820Z,5.50
2022-08-20T05:20:46.594Z,5.68
2022-08-20T05:23:49.314Z,5.45
2022-08-20T05:26:51.972Z,5.35
2022-08-20T05:29:56.074Z,5.07
2022-08-20T05:32:58.297Z,5.27
2022-08-20T05:36:00.620Z,4.70
2022-08-20T05:39:02.621Z,4.82
2022-08-20T05:42:04.739Z,4.70
2022-08-20T05:45:11.014Z,4.82
2022-08-20T05:48:16.873Z,4.47
2022-08-20T05:51:18.985Z,4.22
2022-08-20T05:54:21.303Z,4.05
2022-08-20T05:57:23.189Z,3.83
2022-08-20T06:00:26.205Z,3.97
2022-08-20T06:03:46.662Z,3.97
2022-08-20T06:06:51.744Z,4.65
2022-08-20T06:09:53.714Z,3.58
2022-08-20T06:12:55.682Z,4.50
2022-08-20T06:15:57.951Z,4.78
2022-08-20T06:19:02.936Z,4.00
2022-08-20T06:22:18.386Z,3.60
2022-08-20T06:25:24.860Z,4.13
2022-08-20T06:28:26.771Z,3.63
2022-08-20T06:31:28.800Z,3.50
2022-08-20T06:34:33.462Z,3.07
2022-08-20T06:37:38.057Z,3.75
2022-08-20T06:40:40.258Z,3.13
2022-08-20T06:43:42.302Z,3.75
2022-08-20T06:46:45.442Z,3.20
2022-08-20T06:49:49.019Z,3.30
2022-08-20T06:52:53.243Z,3.20
2022-08-20T06:55:58.915Z,3.85
2022-08-20T06:59:01.048Z,3.40
2022-08-20T07:02:03.904Z,3.85
2022-08-20T07:05:07.524Z,3.70
2022-08-20T07:08:18.763Z,3.50
2022-08-20T07:11:26.639Z,3.83
2022-08-20T07:14:29.881Z,3.58
2022-08-20T07:17:31.861Z,3.00
2022-08-20T07:20:36.813Z,3.27
2022-08-20T07:23:38.864Z,3.50
2022-08-20T07:26:40.948Z,3.53
2022-08-20T07:30:01.577Z,3.80
2022-08-20T07:33:03.733Z,3.67
2022-08-20T07:36:10.351Z,4.13
2022-08-20T07:39:12.658Z,4.05
2022-08-20T07:42:14.701Z,4.57
2022-08-20T07:45:18.776Z,4.28
2022-08-20T07:48:30.936Z,6.32
2022-08-20T07:51:33.715Z,8.87
2022-08-20T07:54:38.079Z,14.43
2022-08-20T07:57:41.333Z,18.13
2022-08-20T08:00:49.849Z,16.95
2022-08-20T08:03:54.221Z,13.10
2022-08-20T08:07:00.011Z,11.50
2022-08-20T08:10:04.051Z,10.35
2022-08-20T08:13:09.396Z,9.50
2022-08-20T08:16:11.779Z,8.63
2022-08-20T08:19:17.871Z,6.70
2022-08-20T08:22:20.155Z,5.50
2022-08-20T08:25:22.188Z,4.88
2022-08-20T08:28:25.281Z,4.50
2022-08-20T08:31:27.325Z,4.40
2022-08-20T08:34:31.472Z,4.70
2022-08-20T08:37:38.190Z,5.23
2022-08-20T08:40:41.187Z,5.65
2022-08-20T08:43:46.796Z,5.30
2022-08-20T08:46:51.396Z,4.57
2022-08-20T08:49:53.595Z,4.60
2022-08-20T08:52:59.523Z,5.43
2022-08-20T08:56:01.695Z,6.85
2022-08-20T08:59:08.672Z,6.32
2022-08-20T09:02:20.264Z,7.38
2022-08-20T09:05:25.019Z,5.88
2022-08-20T09:08:32.329Z,6.60
2022-08-20T09:11:47.489Z,4.88
2022-08-20T09:14:51.837Z,5.93
2022-08-20T09:17:56.061Z,4.60
2022-08-20T09:20:58.636Z,4.35
2022-08-20T09:24:00.624Z,4.20
2022-08-20T09:27:03.088Z,4.70
2022-08-20T09:30:06.108Z,4.03
2022-08-20T09:33:08.339Z,4.65
2022-08-20T09:36:31.699Z,4.35
2022-08-20T09:39:32.509Z,4.03
2022-08-20T09:42:40.995Z,5.07
2022-08-20T09:45:43.459Z,4.28
2022-08-20T09:48:45.505Z,4.57
2022-08-20T09:51:47.589Z,3.83
2022-08-20T09:54:51.558Z,4.40
2022-08-20T09:57:53.695Z,4.15
2022-08-20T10:00:55.773Z,4.60
2022-08-20T10:03:57.740Z,5.47
2022-08-20T10:06:59.671Z,3.88
2022-08-20T10:10:02.766Z,3.13
2022-08-20T10:13:05.224Z,3.60
2022-08-20T10:16:07.415Z,3.08
2022-08-20T10:19:09.484Z,4.10
2022-08-20T10:22:11.555Z,4.40
2022-08-20T10:25:13.675Z,3.70
2022-08-20T10:28:15.702Z,3.78
2022-08-20T10:31:17.747Z,3.88
2022-08-20T10:34:19.890Z,3.67
2022-08-20T10:37:24.132Z,4.00
2022-08-20T10:40:26.312Z,4.93
2022-08-20T10:43:28.621Z,4.35
2022-08-20T10:46:30.696Z,4.43
2022-08-20T10:49:35.826Z,4.20
2022-08-20T10:52:37.829Z,3.72
2022-08-20T10:55:39.960Z,4.23
2022-08-20T10:58:42.058Z,3.80
2022-08-20T11:01:44.203Z,3.58
2022-08-20T11:04:46.969Z,3.80
2022-08-20T11:08:00.233Z,3.72
2022-08-20T11:11:02.520Z,3.70
2022-08-20T11:14:04.475Z,3.65
2022-08-20T11:17:07.199Z,3.88
2022-08-20T11:20:11.155Z,3.55
2022-08-20T11:23:13.443Z,3.90
2022-08-20T11:26:25.051Z,3.20
2022-08-20T11:29:29.981Z,3.40
2022-08-20T11:32:38.064Z,3.42
2022-08-20T11:35:48.561Z,3.78
2022-08-20T11:38:52.778Z,3.10
2022-08-20T11:41:55.521Z,3.77
2022-08-20T11:44:57.712Z,3.55
2022-08-20T11:47:59.698Z,3.17
2022-08-20T11:51:02.747Z,3.55
2022-08-20T11:54:05.641Z,3.58
2022-08-20T11:57:09.407Z,2.90
2022-08-20T12:00:16.029Z,3.00
2022-08-20T12:03:18.105Z,3.42
2022-08-20T12:06:20.088Z,3.65
2022-08-20T12:09:24.817Z,3.58
2022-08-20T12:12:26.850Z,3.33
2022-08-20T12:15:28.915Z,3.30
2022-08-20T12:18:31.941Z,3.30
2022-08-20T12:21:33.986Z,3.05
2022-08-20T12:24:37.161Z,3.13
2022-08-20T12:27:39.546Z,4.00
2022-08-20T12:30:41.845Z,3.30
2022-08-20T12:33:43.805Z,3.25
2022-08-20T12:36:45.775Z,3.03
2022-08-20T12:39:51.758Z,3.25
2022-08-20T12:42:54.679Z,3.00
2022-08-20T12:45:59.098Z,3.20
2022-08-20T12:49:01.129Z,3.10
2022-08-20T12:52:03.419Z,2.92
2022-08-20T12:55:07.362Z,2.47
2022-08-20T12:58:10.488Z,3.47
2022-08-20T13:01:12.530Z,2.50
2022-08-20T13:04:14.541Z,3.35
2022-08-20T13:07:17.236Z,2.83
2022-08-20T13:10:23.688Z,2.88
2022-08-20T13:13:25.698Z,3.23
2022-08-20T13:16:27.814Z,3.15
2022-08-20T13:19:31.149Z,3.30
2022-08-20T13:22:33.128Z,3.13
2022-08-20T13:25:35.228Z,3.10
2022-08-20T13:28:37.182Z,3.63
2022-08-20T13:31:39.926Z,3.30
2022-08-20T13:34:42.323Z,3.72
2022-08-20T13:37:44.291Z,3.47
2022-08-20T13:40:48.813Z,4.05
2022-08-20T13:43:51.104Z,3.17
2022-08-20T13:46:54.135Z,3.30
2022-08-20T13:49:58.939Z,3.30
2022-08-20T13:53:01.178Z,3.38
2022-08-20T13:56:04.795Z,3.70
2022-08-20T13:59:06.833Z,3.53
2022-08-20T14:02:16.335Z,3.70
2022-08-20T14:05:19.139Z,3.42
2022-08-20T14:08:23.599Z,3.85
2022-08-20T14:11:25.620Z,4.10
2022-08-20T14:14:27.600Z,3.17
2022-08-20T14:17:33.316Z,3.80
2022-08-20T14:20:38.718Z,3.75
2022-08-20T14:23:40.805Z,3.83
2022-08-20T14:26:42.788Z,4.00
2022-08-20T14:29:46.018Z,3.33
2022-08-20T14:32:48.492Z,4.20
2022-08-20T14:35:50.943Z,3.25
2022-08-20T14:38:52.984Z,3.75
2022-08-20T14:41:54.917Z,4.00
2022-08-20T14:44:58.675Z,4.07
2022-08-20T14:48:00.716Z,4.60
2022-08-20T14:51:03.254Z,4.65
2022-08-20T14:54:05.301Z,4.35
2022-08-20T14:57:08.903Z,4.25
2022-08-20T15:00:22.367Z,4.20
2022-08-20T15:03:30.270Z,4.45
2022-08-20T15:06:32.353Z,3.88
2022-08-20T15:09:36.191Z,4.25
2022-08-20T15:12:38.541Z,3.85
2022-08-20T15:15:45.139Z,3.50
2022-08-20T15:18:47.145Z,3.50
2022-08-20T15:21:49.504Z,4.13
2022-08-20T15:24:55.651Z,5.00
2022-08-20T15:28:02.018Z,5.53
2022-08-20T15:31:09.566Z,4.63
2022-08-20T15:34:17.619Z,4.60
2022-08-20T15:37:22.815Z,5.05
2022-08-20T15:40:28.842Z,4.90
2022-08-20T15:43:32.642Z,4.07
2022-08-20T15:46:37.471Z,4.77
2022-08-20T15:49:41.477Z,4.15
2022-08-20T15:52:44.849Z,4.35
2022-08-20T15:55:57.978Z,4.97
2022-08-20T15:59:21.719Z,4.68
2022-08-20T16:02:29.788Z,3.70
2022-08-20T16:05:50.437Z,4.22
2022-08-20T16:09:11.101Z,4.63
2022-08-20T16:12:31.458Z,4.28
2022-08-20T16:15:40.595Z,4.78
2022-08-20T16:18:48.097Z,4.13
2022-08-20T16:21:52.292Z,4.20
2022-08-20T16:24:54.551Z,4.20
2022-08-20T16:28:03.684Z,4.10
2022-08-20T16:31:13.789Z,5.70
2022-08-20T16:34:33.289Z,4.60
2022-08-20T16:37:40.254Z,4.70
2022-08-20T16:40:47.147Z,4.32
2022-08-20T16:43:56.009Z,4.45
2022-08-20T16:47:25.774Z,4.35
2022-08-20T16:50:40.077Z,4.80
2022-08-20T16:53:42.246Z,4.65
2022-08-20T16:56:47.313Z,3.97
2022-08-20T17:00:19.064Z,4.65
2022-08-20T17:03:31.411Z,4.72
2022-08-20T17:06:43.838Z,4.13
2022-08-20T17:09:49.222Z,4.75
2022-08-20T17:12:59.810Z,3.90
2022-08-20T17:16:23.045Z,4.95
2022-08-20T17:19:28.738Z,4.68
2022-08-20T17:22:39.448Z,4.93
2022-08-20T17:25:41.570Z,5.22
2022-08-20T17:28:51.252Z,4.80
2022-08-20T17:32:00.168Z,5.00
2022-08-20T17:35:04.509Z,5.22
2022-08-20T17:38:07.207Z,4.83
2022-08-20T17:41:25.677Z,4.95
2022-08-20T17:44:33.684Z,5.88
2022-08-20T17:47:38.695Z,5.88
2022-08-20T17:50:42.737Z,5.20
2022-08-20T17:53:51.907Z,5.43
2022-08-20T17:56:59.490Z,5.57
2022-08-20T18:00:06.682Z,5.97
2022-08-20T18:03:11.930Z,5.85
2022-08-20T18:06:51.382Z,5.90
2022-08-20T18:10:09.746Z,5.67
2022-08-20T18:13:22.909Z,5.55
2022-08-20T18:16:46.789Z,5.93
2022-08-20T18:20:11.242Z,6.32
2022-08-20T18:23:19.924Z,6.07
2022-08-20T18:26:28.473Z,6.00
2022-08-20T18:29:36.962Z,6.60
2022-08-20T18:32:39.392Z,6.32
2022-08-20T18:35:45.941Z,7.05
2022-08-20T18:39:11.357Z,11.48
2022-08-20T18:42:28.910Z,10.37
2022-08-20T18:45:33.719Z,10.15
2022-08-20T18:48:35.821Z,7.75
2022-08-20T18:51:42.721Z,6.75
2022-08-20T18:54:54.327Z,7.07
2022-08-20T18:58:03.150Z,6.97
2022-08-20T19:01:12.270Z,7.10
2022-08-20T19:04:28.012Z,7.43
2022-08-20T19:07:43.175Z,6.47
2022-08-20T19:11:26.856Z,7.50
2022-08-20T19:14:37.836Z,6.80
2022-08-20T19:17:54.093Z,7.35
2022-08-20T19:20:59.059Z,7.43
2022-08-20T19:24:06.631Z,7.35
2022-08-20T19:27:09.513Z,7.57
2022-08-20T19:30:11.758Z,7.43
2022-08-20T19:33:13.807Z,7.40
2022-08-20T19:36:17.828Z,7.25
2022-08-20T19:39:26.122Z,7.13
2022-08-20T19:42:31.447Z,7.38
2022-08-20T19:46:00.096Z,6.63
2022-08-20T19:49:21.595Z,6.93
2022-08-20T19:53:16.848Z,7.90
2022-08-20T19:56:23.085Z,7.15
2022-08-20T19:59:26.553Z,8.20
2022-08-20T20:02:32.679Z,6.90
2022-08-20T20:05:34.694Z,7.13
2022-08-20T20:08:46.107Z,7.35
2022-08-20T20:11:57.227Z,7.40
2022-08-20T20:14:59.730Z,7.00
2022-08-20T20:18:01.888Z,6.93
2022-08-20T20:21:25.299Z,7.13
2022-08-20T20:24:30.650Z,6.18
2022-08-20T20:27:34.719Z,6.95
2022-08-20T20:30:38.513Z,7.32
2022-08-20T20:33:44.496Z,6.70
2022-08-20T20:36:48.247Z,7.68
2022-08-20T20:40:21.260Z,6.90
2022-08-20T20:43:43.476Z,7.28
2022-08-20T20:46:48.015Z,7.45
2022-08-20T20:49:56.400Z,7.27
2022-08-20T20:52:59.192Z,6.78
2022-08-20T20:56:01.486Z,7.65
2022-08-20T20:59:06.782Z,7.65
2022-08-20T21:02:09.604Z,7.57
2022-08-20T21:05:13.471Z,7.67
2022-08-20T21:08:15.607Z,7.55
2022-08-20T21:11:17.613Z,7.57
2022-08-20T21:14:20.308Z,8.15
2022-08-20T21:17:22.755Z,8.20
2022-08-20T21:20:25.828Z,8.10
2022-08-20T21:23:40.277Z,7.90
2022-08-20T21:26:45.219Z,8.15
2022-08-20T21:29:47.237Z,8.40
2022-08-20T21:32:49.880Z,8.68
2022-08-20T21:35:52.054Z,8.50
2022-08-20T21:38:54.032Z,8.57
2022-08-20T21:41:58.039Z,9.05
2022-08-20T21:45:00.016Z,8.75
2022-08-20T21:48:02.061Z,9.48
2022-08-20T21:51:04.007Z,8.00
2022-08-20T21:54:05.956Z,8.48
2022-08-20T21:57:17.523Z,8.30
2022-08-20T22:00:50.674Z,8.10
2022-08-20T22:03:52.638Z,8.13
2022-08-20T22:06:54.951Z,8.37
2022-08-20T22:09:56.994Z,8.43
2022-08-20T22:12:59.014Z,9.15
2022-08-20T22:16:02.794Z,8.25
2022-08-20T22:19:04.837Z,8.45
2022-08-20T22:22:10.722Z,8.57
2022-08-20T22:25:12.921Z,8.25
2022-08-20T22:28:16.554Z,8.63
2022-08-20T22:31:27.516Z,7.72
2022-08-20T22:34:32.835Z,7.63
2022-08-20T22:37:34.993Z,7.63
2022-08-20T22:40:37.083Z,7.75
2022-08-20T22:43:44.975Z,7.50
2022-08-20T22:47:04.890Z,8.13
2022-08-20T22:50:08.493Z,8.07
2022-08-20T22:53:11.434Z,8.40
2022-08-20T22:56:19.820Z,8.93
2022-08-20T22:59:23.940Z,8.60
2022-08-20T23:02:26.106Z,8.40
2022-08-20T23:05:30.308Z,7.78
2022-08-20T23:08:32.591Z,8.07
2022-08-20T23:11:34.596Z,8.77
2022-08-20T23:14:37.329Z,8.55
2022-08-20T23:17:39.717Z,8.38
2022-08-20T23:20:45.896Z,8.95
2022-08-20T23:23:47.935Z,8.07
2022-08-20T23:26:52.994Z,7.72
2022-08-20T23:29:55.491Z,7.80
2022-08-20T23:32:57.826Z,7.75
2022-08-20T23:36:07.274Z,7.50
2022-08-20T23:39:09.539Z,8.27
2022-08-20T23:42:11.633Z,7.22
2022-08-20T23:45:14.154Z,6.97
2022-08-20T23:48:16.292Z,6.47
2022-08-20T23:51:18.771Z,6.85
2022-08-20T23:54:20.827Z,6.43
2022-08-20T23:57:22.767Z,6.78
